PIA757 OPLA-EGLL
Flight info
| Callsign | PIA757 |
|---|---|
| Flight time | N/A |
| Altitude | 38000 |
| Route | AKBER J121 INDEK DCT BTR T400 NONIB DCT POGON DCT RODAR M11 REBLO UM11 CRM UL746 ODERO L746 LUGEB DCT DVA DCT AGMEL DCT LAMSI DCT ALESO |
| Aircraft | B77L/H-SDE1E2E3FGHIJ2J3J4J5M1RWXY/LB1D1 |
Departure
| Time | 2026-04-30 14:47 |
|---|---|
| Airport | Allama Iqbal International Airport (OPLA) |
Arrival
| Time | N/A |
|---|---|
| Airport | London Heathrow Airport (EGLL) |
| Time | Latitude | Longitude | Altitude | Speed | Heading |
|---|---|---|---|---|---|
| 2026-04-30 14:28 | 31.52103 | 74.40921 | 727 ft | 0 kts | 93° |
| 2026-04-30 14:35 | 31.52105 | 74.40887 | 725 ft | 2 kts | 93° |
| 2026-04-30 14:35 | 31.52098 | 74.40854 | 724 ft | 4 kts | 31° |
| 2026-04-30 14:35 | 31.52074 | 74.40846 | 726 ft | 4 kts | 2° |
| 2026-04-30 14:36 | 31.52060 | 74.40846 | 726 ft | 0 kts | 359° |
| 2026-04-30 14:38 | 31.52062 | 74.40846 | 727 ft | 1 kts | 359° |
| 2026-04-30 14:38 | 31.52073 | 74.40845 | 726 ft | 2 kts | 359° |
| 2026-04-30 14:38 | 31.52091 | 74.40845 | 725 ft | 3 kts | 359° |
| 2026-04-30 14:38 | 31.52117 | 74.40845 | 726 ft | 4 kts | 359° |
| 2026-04-30 14:39 | 31.52150 | 74.40844 | 729 ft | 5 kts | 359° |
| 2026-04-30 14:39 | 31.52190 | 74.40843 | 728 ft | 6 kts | 359° |
| 2026-04-30 14:39 | 31.52237 | 74.40843 | 727 ft | 7 kts | 0° |
| 2026-04-30 14:40 | 31.52348 | 74.40846 | 728 ft | 9 kts | 0° |
| 2026-04-30 14:40 | 31.52397 | 74.40806 | 729 ft | 10 kts | 294° |
| 2026-04-30 14:40 | 31.52405 | 74.40728 | 728 ft | 10 kts | 265° |
| 2026-04-30 14:40 | 31.52358 | 74.40674 | 728 ft | 10 kts | 195° |
| 2026-04-30 14:41 | 31.52286 | 74.40669 | 728 ft | 11 kts | 181° |
| 2026-04-30 14:41 | 31.52212 | 74.40668 | 728 ft | 11 kts | 181° |
| 2026-04-30 14:41 | 31.52139 | 74.40666 | 728 ft | 11 kts | 181° |
| 2026-04-30 14:41 | 31.52065 | 74.40663 | 729 ft | 11 kts | 181° |
| 2026-04-30 14:42 | 31.51991 | 74.40661 | 728 ft | 11 kts | 181° |
| 2026-04-30 14:42 | 31.51917 | 74.40662 | 728 ft | 11 kts | 179° |
| 2026-04-30 14:42 | 31.51839 | 74.40663 | 730 ft | 12 kts | 179° |
| 2026-04-30 14:42 | 31.51755 | 74.40663 | 729 ft | 13 kts | 179° |
| 2026-04-30 14:43 | 31.51666 | 74.40662 | 728 ft | 13 kts | 181° |
| 2026-04-30 14:43 | 31.51578 | 74.40660 | 727 ft | 13 kts | 181° |
| 2026-04-30 14:43 | 31.51489 | 74.40657 | 728 ft | 13 kts | 181° |
| 2026-04-30 14:43 | 31.51400 | 74.40655 | 727 ft | 13 kts | 181° |
| 2026-04-30 14:44 | 31.51312 | 74.40654 | 727 ft | 13 kts | 181° |
| 2026-04-30 14:44 | 31.51223 | 74.40653 | 729 ft | 13 kts | 181° |
| 2026-04-30 14:44 | 31.51135 | 74.40651 | 727 ft | 13 kts | 181° |
| 2026-04-30 14:44 | 31.51046 | 74.40650 | 727 ft | 13 kts | 180° |
| 2026-04-30 14:45 | 31.50958 | 74.40648 | 728 ft | 13 kts | 181° |
| 2026-04-30 14:45 | 31.50870 | 74.40646 | 727 ft | 13 kts | 181° |
| 2026-04-30 14:45 | 31.50782 | 74.40634 | 727 ft | 13 kts | 200° |
| 2026-04-30 14:45 | 31.50711 | 74.40572 | 729 ft | 13 kts | 222° |
| 2026-04-30 14:46 | 31.50666 | 74.40484 | 727 ft | 13 kts | 265° |
| 2026-04-30 14:46 | 31.50705 | 74.40433 | 726 ft | 8 kts | 360° |
| 2026-04-30 14:46 | 31.50719 | 74.40433 | 728 ft | 0 kts | 0° |
| 2026-04-30 14:46 | 31.50722 | 74.40433 | 728 ft | 3 kts | 0° |
| 2026-04-30 14:47 | 31.51146 | 74.40439 | 728 ft | 107 kts | 1° |
| 2026-04-30 14:47 | 31.52206 | 74.40455 | 755 ft | 191 kts | 359° |
| 2026-04-30 14:47 | 31.53611 | 74.40454 | 1425 ft | 203 kts | 0° |
| 2026-04-30 14:47 | 31.54980 | 74.40491 | 2232 ft | 195 kts | 2° |
| 2026-04-30 14:48 | 31.56355 | 74.40531 | 2653 ft | 204 kts | 357° |
| 2026-04-30 14:48 | 31.57717 | 74.39887 | 2793 ft | 226 kts | 319° |
| 2026-04-30 14:48 | 31.58874 | 74.38510 | 2976 ft | 251 kts | 315° |
| 2026-04-30 14:48 | 31.60139 | 74.36995 | 3393 ft | 266 kts | 315° |
| 2026-04-30 14:49 | 31.61466 | 74.35446 | 4078 ft | 272 kts | 316° |
| 2026-04-30 14:49 | 31.62809 | 74.33908 | 4855 ft | 274 kts | 317° |
| 2026-04-30 14:49 | 31.64182 | 74.32358 | 5690 ft | 274 kts | 317° |
| 2026-04-30 14:49 | 31.65570 | 74.30809 | 6460 ft | 276 kts | 316° |
| 2026-04-30 14:50 | 31.68386 | 74.27697 | 7971 ft | 278 kts | 316° |
| 2026-04-30 14:50 | 31.69800 | 74.26144 | 8748 ft | 279 kts | 316° |
| 2026-04-30 14:51 | 31.72649 | 74.23019 | 10158 ft | 286 kts | 315° |
| 2026-04-30 14:51 | 31.74140 | 74.21383 | 10357 ft | 310 kts | 315° |
| 2026-04-30 14:51 | 31.77529 | 74.17665 | 10728 ft | 356 kts | 316° |
| 2026-04-30 14:52 | 31.79371 | 74.15648 | 11268 ft | 367 kts | 316° |
| 2026-04-30 14:52 | 31.83166 | 74.11487 | 12855 ft | 376 kts | 315° |
| 2026-04-30 14:52 | 31.85094 | 74.09387 | 13697 ft | 379 kts | 317° |
| 2026-04-30 14:53 | 31.89254 | 74.05490 | 15090 ft | 390 kts | 321° |
| 2026-04-30 14:53 | 31.90712 | 74.04164 | 15550 ft | 393 kts | 321° |
| 2026-04-30 14:54 | 31.94004 | 74.01118 | 16683 ft | 399 kts | 320° |
| 2026-04-30 14:54 | 31.98394 | 73.97162 | 18108 ft | 406 kts | 321° |
| 2026-04-30 14:55 | 32.02181 | 73.93805 | 19070 ft | 414 kts | 322° |
| 2026-04-30 14:55 | 32.05252 | 73.91077 | 19843 ft | 420 kts | 321° |
| 2026-04-30 14:55 | 32.09965 | 73.86875 | 21022 ft | 429 kts | 321° |
| 2026-04-30 14:56 | 32.13948 | 73.83312 | 21956 ft | 436 kts | 321° |
| 2026-04-30 14:56 | 32.18826 | 73.78939 | 23060 ft | 444 kts | 321° |
| 2026-04-30 14:57 | 32.21296 | 73.76723 | 23547 ft | 449 kts | 321° |
| 2026-04-30 14:57 | 32.26286 | 73.72242 | 24610 ft | 451 kts | 321° |
| 2026-04-30 14:58 | 32.32120 | 73.66995 | 25804 ft | 456 kts | 321° |
| 2026-04-30 14:58 | 32.33792 | 73.65489 | 26124 ft | 457 kts | 321° |
| 2026-04-30 14:58 | 32.38881 | 73.60902 | 27066 ft | 462 kts | 321° |
| 2026-04-30 14:59 | 32.44019 | 73.56264 | 27981 ft | 467 kts | 321° |
| 2026-04-30 15:00 | 32.51815 | 73.49214 | 29239 ft | 473 kts | 321° |
| 2026-04-30 15:00 | 32.57020 | 73.44498 | 30045 ft | 474 kts | 321° |
| 2026-04-30 15:01 | 32.62151 | 73.39846 | 31671 ft | 450 kts | 320° |
| 2026-04-30 15:01 | 32.64588 | 73.37635 | 32734 ft | 433 kts | 319° |
| 2026-04-30 15:01 | 32.69282 | 73.33363 | 33755 ft | 424 kts | 319° |
| 2026-04-30 15:02 | 32.73873 | 73.28987 | 33738 ft | 424 kts | 314° |
| 2026-04-30 15:03 | 32.82935 | 73.15501 | 33777 ft | 416 kts | 302° |
| 2026-04-30 15:04 | 32.90855 | 73.01116 | 33770 ft | 418 kts | 303° |
| 2026-04-30 15:06 | 32.98820 | 72.86694 | 33782 ft | 421 kts | 302° |
| 2026-04-30 15:07 | 33.05224 | 72.75060 | 33780 ft | 422 kts | 302° |
| 2026-04-30 15:08 | 33.11651 | 72.63350 | 33773 ft | 422 kts | 302° |
| 2026-04-30 15:09 | 33.19634 | 72.48752 | 33774 ft | 421 kts | 302° |
| 2026-04-30 15:10 | 33.26018 | 72.37035 | 33777 ft | 420 kts | 302° |
| 2026-04-30 15:11 | 33.35550 | 72.19470 | 34029 ft | 422 kts | 301° |
| 2026-04-30 15:12 | 33.40317 | 72.10655 | 34663 ft | 422 kts | 301° |
| 2026-04-30 15:13 | 33.43508 | 72.04741 | 34761 ft | 422 kts | 301° |
| 2026-04-30 15:14 | 33.54705 | 71.84518 | 34776 ft | 419 kts | 307° |
| 2026-04-30 15:17 | 33.72829 | 71.61429 | 34790 ft | 425 kts | 310° |
| 2026-04-30 15:19 | 33.88980 | 71.40775 | 34778 ft | 424 kts | 309° |
| 2026-04-30 17:39 | 40.46429 | 51.83057 | 36182 ft | 454 kts | 270° |
| 2026-04-30 17:42 | 40.47409 | 51.41800 | 36186 ft | 453 kts | 276° |
| 2026-04-30 17:43 | 40.49364 | 51.21256 | 36189 ft | 453 kts | 276° |
| 2026-04-30 17:44 | 40.51584 | 50.96766 | 36182 ft | 453 kts | 276° |
| 2026-04-30 17:47 | 40.56209 | 50.60119 | 36174 ft | 451 kts | 279° |
| 2026-04-30 17:48 | 40.59864 | 50.31733 | 36180 ft | 450 kts | 279° |
| 2026-04-30 17:50 | 40.63933 | 49.99458 | 36189 ft | 449 kts | 279° |
| 2026-04-30 17:52 | 40.66937 | 49.75130 | 36174 ft | 449 kts | 278° |
| 2026-04-30 17:54 | 40.71308 | 49.38743 | 36171 ft | 447 kts | 278° |
| 2026-04-30 17:56 | 40.71077 | 49.06217 | 36166 ft | 447 kts | 262° |
| 2026-04-30 17:58 | 40.68377 | 48.82068 | 36170 ft | 447 kts | 263° |
| 2026-04-30 18:00 | 40.64733 | 48.49743 | 36177 ft | 446 kts | 262° |
| 2026-04-30 18:01 | 40.62422 | 48.29657 | 36173 ft | 442 kts | 262° |
| 2026-04-30 18:02 | 40.59606 | 48.05806 | 36168 ft | 440 kts | 262° |
| 2026-04-30 18:04 | 40.58714 | 47.81855 | 36166 ft | 442 kts | 272° |
| 2026-04-30 18:06 | 40.59785 | 47.49428 | 36156 ft | 446 kts | 272° |
| 2026-04-30 18:08 | 40.60627 | 47.20931 | 36160 ft | 446 kts | 272° |
| 2026-04-30 18:10 | 40.63733 | 46.88720 | 36144 ft | 446 kts | 277° |
| 2026-04-30 18:11 | 40.66567 | 46.60358 | 36137 ft | 446 kts | 277° |
| 2026-04-30 18:13 | 40.68545 | 46.40138 | 36129 ft | 446 kts | 276° |
| 2026-04-30 18:14 | 40.70487 | 46.19907 | 36139 ft | 446 kts | 276° |
| 2026-04-30 18:15 | 40.72767 | 45.95654 | 36124 ft | 446 kts | 276° |
| 2026-04-30 18:16 | 40.74258 | 45.79482 | 36140 ft | 445 kts | 276° |
| 2026-04-30 18:17 | 40.74998 | 45.71371 | 36133 ft | 445 kts | 276° |
| 2026-04-30 18:18 | 40.76096 | 45.59210 | 36135 ft | 445 kts | 276° |
| 2026-04-30 18:18 | 40.76819 | 45.51113 | 36147 ft | 444 kts | 275° |
| 2026-04-30 18:19 | 40.77282 | 45.43048 | 36153 ft | 443 kts | 272° |
| 2026-04-30 18:19 | 40.77628 | 45.34928 | 36146 ft | 443 kts | 272° |
| 2026-04-30 18:20 | 40.77974 | 45.26818 | 36147 ft | 443 kts | 272° |
| 2026-04-30 18:20 | 40.78328 | 45.18706 | 36150 ft | 443 kts | 272° |
| 2026-04-30 18:21 | 40.78681 | 45.10605 | 36153 ft | 442 kts | 272° |
| 2026-04-30 18:21 | 40.79028 | 45.02556 | 36169 ft | 442 kts | 272° |
| 2026-04-30 18:22 | 40.79366 | 44.94571 | 36155 ft | 442 kts | 272° |
| 2026-04-30 18:22 | 40.79869 | 44.82447 | 36160 ft | 440 kts | 272° |
| 2026-04-30 18:23 | 40.80196 | 44.74375 | 36172 ft | 440 kts | 272° |
| 2026-04-30 18:23 | 40.80517 | 44.66300 | 36167 ft | 441 kts | 272° |
| 2026-04-30 18:24 | 40.80988 | 44.54224 | 36179 ft | 442 kts | 272° |
| 2026-04-30 18:25 | 40.81296 | 44.46127 | 36162 ft | 441 kts | 272° |
| 2026-04-30 18:25 | 40.81747 | 44.34003 | 36174 ft | 441 kts | 272° |
| 2026-04-30 18:26 | 40.82185 | 44.21880 | 36162 ft | 441 kts | 272° |
| 2026-04-30 18:27 | 40.82609 | 44.09818 | 36169 ft | 441 kts | 271° |
| 2026-04-30 18:28 | 40.83018 | 43.97811 | 36163 ft | 440 kts | 271° |
| 2026-04-30 18:28 | 40.83419 | 43.85732 | 36149 ft | 441 kts | 271° |
| 2026-04-30 18:29 | 40.83894 | 43.71669 | 36160 ft | 442 kts | 271° |
| 2026-04-30 18:30 | 40.84687 | 43.55522 | 36149 ft | 442 kts | 273° |
| 2026-04-30 18:31 | 40.85395 | 43.43381 | 36149 ft | 442 kts | 273° |
| 2026-04-30 18:32 | 40.86059 | 43.31240 | 36145 ft | 442 kts | 273° |
| 2026-04-30 18:33 | 40.86700 | 43.19166 | 36157 ft | 441 kts | 273° |
| 2026-04-30 18:33 | 40.87330 | 43.07042 | 36156 ft | 441 kts | 272° |
| 2026-04-30 18:34 | 40.87943 | 42.95026 | 36148 ft | 442 kts | 272° |
| 2026-04-30 18:35 | 40.88346 | 42.86986 | 36157 ft | 441 kts | 272° |
| 2026-04-30 18:35 | 40.88746 | 42.78908 | 36153 ft | 440 kts | 272° |
| 2026-04-30 18:36 | 40.89333 | 42.66822 | 36149 ft | 439 kts | 272° |
| 2026-04-30 18:37 | 40.89906 | 42.54758 | 36143 ft | 438 kts | 272° |
| 2026-04-30 18:37 | 40.90278 | 42.46781 | 36153 ft | 438 kts | 272° |
| 2026-04-30 18:38 | 40.90646 | 42.38753 | 36135 ft | 438 kts | 272° |
| 2026-04-30 18:38 | 40.91010 | 42.30724 | 36117 ft | 437 kts | 272° |
| 2026-04-30 18:39 | 40.91365 | 42.22749 | 36129 ft | 438 kts | 272° |
| 2026-04-30 18:39 | 40.91717 | 42.14712 | 36117 ft | 438 kts | 272° |
| 2026-04-30 18:40 | 40.92065 | 42.06666 | 36141 ft | 439 kts | 272° |
| 2026-04-30 18:40 | 40.92402 | 41.98706 | 36130 ft | 439 kts | 272° |
| 2026-04-30 18:41 | 40.92738 | 41.90657 | 36112 ft | 438 kts | 272° |
| 2026-04-30 18:41 | 40.93066 | 41.82667 | 36109 ft | 438 kts | 272° |
| 2026-04-30 18:42 | 40.93390 | 41.74636 | 36093 ft | 437 kts | 272° |
| 2026-04-30 18:42 | 40.93865 | 41.62628 | 36129 ft | 435 kts | 271° |
| 2026-04-30 18:45 | 40.95492 | 41.18747 | 36115 ft | 436 kts | 271° |
| 2026-04-30 18:46 | 40.95768 | 41.10789 | 36114 ft | 436 kts | 271° |
| 2026-04-30 18:46 | 40.96043 | 41.02769 | 36119 ft | 436 kts | 271° |
| 2026-04-30 18:47 | 40.96308 | 40.94856 | 36115 ft | 436 kts | 271° |
| 2026-04-30 18:47 | 40.96570 | 40.86846 | 36122 ft | 436 kts | 271° |
| 2026-04-30 18:48 | 40.96821 | 40.78898 | 36123 ft | 435 kts | 271° |
| 2026-04-30 18:48 | 40.97066 | 40.70906 | 36111 ft | 434 kts | 271° |
| 2026-04-30 18:49 | 40.97283 | 40.63706 | 36109 ft | 434 kts | 271° |
| 2026-04-30 18:49 | 40.97520 | 40.55722 | 36106 ft | 434 kts | 271° |
| 2026-04-30 18:50 | 40.97750 | 40.47790 | 36098 ft | 434 kts | 271° |
| 2026-04-30 18:50 | 40.97974 | 40.39810 | 36103 ft | 434 kts | 271° |
| 2026-04-30 18:51 | 40.98195 | 40.31830 | 36098 ft | 434 kts | 270° |
| 2026-04-30 18:51 | 40.98410 | 40.23860 | 36098 ft | 433 kts | 270° |
| 2026-04-30 18:52 | 40.98616 | 40.15950 | 36101 ft | 433 kts | 270° |
| 2026-04-30 18:52 | 40.98819 | 40.07989 | 36101 ft | 433 kts | 270° |
| 2026-04-30 18:53 | 40.99017 | 39.99986 | 36490 ft | 436 kts | 270° |
| 2026-04-30 18:53 | 40.99112 | 39.96087 | 36864 ft | 434 kts | 270° |
| 2026-04-30 18:53 | 40.99209 | 39.92098 | 37167 ft | 435 kts | 270° |
| 2026-04-30 18:54 | 40.99397 | 39.84114 | 37129 ft | 436 kts | 270° |
| 2026-04-30 18:54 | 40.99790 | 39.76148 | 37129 ft | 432 kts | 275° |
| 2026-04-30 18:55 | 41.00568 | 39.68275 | 37136 ft | 431 kts | 275° |
| 2026-04-30 18:55 | 41.01714 | 39.56514 | 37129 ft | 431 kts | 275° |
| 2026-04-30 18:56 | 41.02830 | 39.44690 | 37110 ft | 432 kts | 275° |
| 2026-04-30 18:57 | 41.03940 | 39.32823 | 37098 ft | 434 kts | 275° |
| 2026-04-30 18:57 | 41.04671 | 39.24921 | 37091 ft | 436 kts | 275° |
| 2026-04-30 18:58 | 41.05769 | 39.12957 | 37089 ft | 437 kts | 275° |
| 2026-04-30 18:59 | 41.06885 | 39.00969 | 37085 ft | 437 kts | 275° |
| 2026-04-30 19:00 | 41.08345 | 38.85143 | 37101 ft | 437 kts | 275° |
| 2026-04-30 19:01 | 41.09793 | 38.69157 | 37088 ft | 437 kts | 275° |
| 2026-04-30 19:02 | 41.10789 | 38.57161 | 37090 ft | 436 kts | 274° |
| 2026-04-30 19:03 | 41.12136 | 38.41225 | 37101 ft | 436 kts | 274° |
| 2026-04-30 19:04 | 41.13458 | 38.25284 | 37099 ft | 434 kts | 274° |
| 2026-04-30 19:05 | 41.14736 | 38.09436 | 37111 ft | 433 kts | 274° |
| 2026-04-30 19:06 | 41.15989 | 37.93649 | 37100 ft | 433 kts | 274° |
| 2026-04-30 19:06 | 41.16961 | 37.81788 | 37094 ft | 433 kts | 275° |
| 2026-04-30 19:07 | 41.18009 | 37.69875 | 37086 ft | 433 kts | 275° |
| 2026-04-30 19:08 | 41.19124 | 37.53952 | 37093 ft | 433 kts | 272° |
| 2026-04-30 19:09 | 41.19957 | 37.42047 | 37093 ft | 434 kts | 274° |
| 2026-04-30 19:09 | 41.20566 | 37.34065 | 37081 ft | 435 kts | 274° |
| 2026-04-30 19:10 | 41.21733 | 37.18104 | 37099 ft | 436 kts | 274° |
| 2026-04-30 19:11 | 41.22694 | 37.06076 | 37092 ft | 437 kts | 274° |
| 2026-04-30 19:12 | 41.23318 | 36.98156 | 37103 ft | 437 kts | 274° |
| 2026-04-30 19:12 | 41.23941 | 36.90124 | 37103 ft | 437 kts | 274° |
| 2026-04-30 19:13 | 41.25161 | 36.74130 | 37099 ft | 436 kts | 274° |
| 2026-04-30 19:14 | 41.25766 | 36.66114 | 37100 ft | 436 kts | 274° |
| 2026-04-30 19:14 | 41.26389 | 36.58105 | 37115 ft | 436 kts | 276° |
| 2026-04-30 19:15 | 41.27716 | 36.50290 | 37093 ft | 438 kts | 285° |
| 2026-04-30 19:15 | 41.30675 | 36.38801 | 37094 ft | 438 kts | 286° |
| 2026-04-30 19:16 | 41.32644 | 36.31138 | 37091 ft | 437 kts | 286° |
| 2026-04-30 19:17 | 41.35559 | 36.19640 | 37087 ft | 437 kts | 285° |
| 2026-04-30 19:17 | 41.38440 | 36.08188 | 37080 ft | 437 kts | 285° |
| 2026-04-30 19:18 | 41.41292 | 35.96798 | 37080 ft | 436 kts | 285° |
| 2026-04-30 19:19 | 41.43206 | 35.89124 | 37079 ft | 437 kts | 285° |
| 2026-04-30 19:19 | 41.46056 | 35.77651 | 37078 ft | 437 kts | 285° |
| 2026-04-30 19:20 | 41.47958 | 35.69962 | 37072 ft | 436 kts | 285° |
| 2026-04-30 19:21 | 41.50798 | 35.58434 | 37071 ft | 436 kts | 285° |
| 2026-04-30 19:22 | 41.54554 | 35.43104 | 37064 ft | 436 kts | 285° |
| 2026-04-30 19:23 | 41.60168 | 35.19997 | 37065 ft | 436 kts | 285° |
| 2026-04-30 19:24 | 41.62948 | 35.08466 | 37066 ft | 437 kts | 285° |
| 2026-04-30 19:25 | 41.67556 | 34.89228 | 37059 ft | 437 kts | 285° |
| 2026-04-30 19:26 | 41.71232 | 34.73767 | 37063 ft | 437 kts | 284° |
| 2026-04-30 19:27 | 41.73984 | 34.62121 | 37062 ft | 437 kts | 284° |
| 2026-04-30 19:28 | 41.76712 | 34.50513 | 37046 ft | 438 kts | 284° |
| 2026-04-30 19:29 | 41.80343 | 34.34957 | 37045 ft | 436 kts | 284° |
| 2026-04-30 19:30 | 41.83923 | 34.19518 | 37054 ft | 433 kts | 284° |
| 2026-04-30 19:31 | 41.87473 | 34.04091 | 37055 ft | 432 kts | 284° |
| 2026-04-30 19:31 | 41.90086 | 33.92682 | 37056 ft | 429 kts | 284° |
| 2026-04-30 19:32 | 41.91818 | 33.85079 | 37065 ft | 429 kts | 284° |
| 2026-04-30 19:32 | 41.93560 | 33.77414 | 37064 ft | 429 kts | 284° |
| 2026-04-30 19:33 | 41.95292 | 33.69744 | 37056 ft | 428 kts | 283° |
| 2026-04-30 19:33 | 41.96829 | 33.62023 | 37056 ft | 428 kts | 281° |
| 2026-04-30 19:34 | 41.98271 | 33.54323 | 37054 ft | 428 kts | 281° |
| 2026-04-30 19:35 | 42.00478 | 33.42699 | 37036 ft | 428 kts | 282° |
| 2026-04-30 19:35 | 42.01959 | 33.34953 | 37044 ft | 428 kts | 282° |
| 2026-04-30 19:36 | 42.03434 | 33.27202 | 37040 ft | 428 kts | 282° |
| 2026-04-30 19:36 | 42.05631 | 33.15604 | 37057 ft | 429 kts | 282° |
| 2026-04-30 19:37 | 42.07095 | 33.07835 | 37037 ft | 429 kts | 282° |
| 2026-04-30 19:37 | 42.08656 | 33.00076 | 37037 ft | 429 kts | 283° |
| 2026-04-30 19:38 | 42.10230 | 32.92510 | 37044 ft | 429 kts | 283° |
| 2026-04-30 19:38 | 42.11825 | 32.84760 | 37059 ft | 429 kts | 283° |
| 2026-04-30 19:39 | 42.13402 | 32.77013 | 37043 ft | 429 kts | 283° |
| 2026-04-30 19:39 | 42.14970 | 32.69276 | 37042 ft | 427 kts | 283° |
| 2026-04-30 19:40 | 42.16519 | 32.61611 | 37048 ft | 426 kts | 282° |
| 2026-04-30 19:40 | 42.18067 | 32.53901 | 37043 ft | 425 kts | 282° |
| 2026-04-30 19:41 | 42.19605 | 32.46204 | 37046 ft | 425 kts | 282° |
| 2026-04-30 19:41 | 42.21136 | 32.38512 | 37047 ft | 425 kts | 282° |
| 2026-04-30 19:42 | 42.22663 | 32.30815 | 37047 ft | 425 kts | 282° |
| 2026-04-30 19:42 | 42.24175 | 32.23172 | 37047 ft | 425 kts | 282° |
| 2026-04-30 19:43 | 42.25695 | 32.15468 | 37060 ft | 425 kts | 282° |
| 2026-04-30 19:44 | 42.27962 | 32.03922 | 37059 ft | 424 kts | 282° |
| 2026-04-30 19:44 | 42.29427 | 31.96390 | 37059 ft | 423 kts | 282° |
| 2026-04-30 19:45 | 42.30916 | 31.88710 | 37070 ft | 422 kts | 282° |
| 2026-04-30 19:45 | 42.32400 | 31.81033 | 37077 ft | 422 kts | 282° |
| 2026-04-30 19:46 | 42.33874 | 31.73367 | 37064 ft | 421 kts | 282° |
| 2026-04-30 19:46 | 42.35344 | 31.65704 | 37069 ft | 421 kts | 282° |
| 2026-04-30 19:47 | 42.36795 | 31.58104 | 37075 ft | 420 kts | 282° |
| 2026-04-30 19:47 | 42.38252 | 31.50447 | 37092 ft | 420 kts | 281° |
| 2026-04-30 19:48 | 42.39703 | 31.42787 | 37081 ft | 420 kts | 281° |
| 2026-04-30 19:48 | 42.41149 | 31.35120 | 37089 ft | 420 kts | 281° |
| 2026-04-30 19:49 | 42.42580 | 31.27506 | 37084 ft | 421 kts | 281° |
| 2026-04-30 19:49 | 42.44736 | 31.15984 | 37100 ft | 421 kts | 281° |
| 2026-04-30 19:50 | 42.46168 | 31.08291 | 37101 ft | 422 kts | 281° |
| 2026-04-30 19:50 | 42.47602 | 31.00579 | 37099 ft | 422 kts | 281° |
| 2026-04-30 19:51 | 42.49000 | 30.93034 | 37097 ft | 423 kts | 281° |
| 2026-04-30 19:51 | 42.50426 | 30.85305 | 37125 ft | 423 kts | 281° |
| 2026-04-30 19:52 | 42.51848 | 30.77565 | 37112 ft | 423 kts | 281° |
| 2026-04-30 19:52 | 42.53266 | 30.69816 | 37115 ft | 423 kts | 280° |
| 2026-04-30 19:53 | 42.54668 | 30.62117 | 37116 ft | 423 kts | 280° |
| 2026-04-30 19:53 | 42.56074 | 30.54370 | 37122 ft | 423 kts | 280° |
| 2026-04-30 19:54 | 42.57476 | 30.46609 | 37133 ft | 424 kts | 280° |
| 2026-04-30 19:54 | 42.58640 | 30.40146 | 37131 ft | 425 kts | 280° |
| 2026-04-30 19:55 | 42.60071 | 30.32368 | 37134 ft | 426 kts | 284° |
| 2026-04-30 19:55 | 42.63096 | 30.23860 | 37141 ft | 436 kts | 296° |
| 2026-04-30 19:56 | 42.66874 | 30.17324 | 37153 ft | 444 kts | 306° |
| 2026-04-30 19:56 | 42.71029 | 30.11094 | 37149 ft | 446 kts | 306° |
| 2026-04-30 19:57 | 42.74491 | 30.05902 | 37147 ft | 446 kts | 306° |
| 2026-04-30 19:57 | 42.79246 | 29.98672 | 37180 ft | 446 kts | 306° |
| 2026-04-30 19:58 | 42.83366 | 29.92347 | 37157 ft | 446 kts | 306° |
| 2026-04-30 19:58 | 42.87471 | 29.86024 | 37152 ft | 445 kts | 306° |
| 2026-04-30 19:59 | 42.90878 | 29.80766 | 37180 ft | 444 kts | 306° |
| 2026-04-30 20:00 | 42.97005 | 29.71288 | 37181 ft | 444 kts | 306° |
| 2026-04-30 20:00 | 43.01053 | 29.65009 | 37176 ft | 443 kts | 306° |
| 2026-04-30 20:01 | 43.07158 | 29.55513 | 37183 ft | 443 kts | 306° |
| 2026-04-30 20:01 | 43.11882 | 29.48145 | 37185 ft | 443 kts | 306° |
| 2026-04-30 20:02 | 43.17287 | 29.39690 | 37185 ft | 443 kts | 306° |
| 2026-04-30 20:03 | 43.23375 | 29.30139 | 37193 ft | 444 kts | 306° |
| 2026-04-30 20:03 | 43.28091 | 29.22718 | 37198 ft | 445 kts | 306° |
| 2026-04-30 20:04 | 43.31470 | 29.17387 | 37214 ft | 446 kts | 306° |
| 2026-04-30 20:05 | 43.37578 | 29.07731 | 37212 ft | 447 kts | 306° |
| 2026-04-30 20:05 | 43.43636 | 28.98120 | 37255 ft | 449 kts | 306° |
| 2026-04-30 20:06 | 43.45687 | 28.94857 | 37513 ft | 451 kts | 306° |
| 2026-04-30 20:06 | 43.47708 | 28.91641 | 37844 ft | 450 kts | 307° |
| 2026-04-30 20:07 | 43.60095 | 28.71847 | 38228 ft | 447 kts | 307° |
| 2026-04-30 20:08 | 43.62092 | 28.68643 | 38234 ft | 446 kts | 307° |
| 2026-04-30 20:08 | 43.66126 | 28.62157 | 38251 ft | 445 kts | 307° |
| 2026-04-30 20:09 | 43.70156 | 28.55665 | 38238 ft | 445 kts | 307° |
| 2026-04-30 20:09 | 43.75691 | 28.45287 | 38245 ft | 450 kts | 297° |
| 2026-04-30 20:10 | 43.80325 | 28.34006 | 38245 ft | 453 kts | 296° |
| 2026-04-30 20:11 | 43.84999 | 28.22623 | 38246 ft | 454 kts | 297° |
| 2026-04-30 20:11 | 43.88128 | 28.15028 | 38260 ft | 454 kts | 297° |
| 2026-04-30 20:12 | 43.92796 | 28.03671 | 38266 ft | 454 kts | 297° |
| 2026-04-30 20:13 | 43.95869 | 27.96169 | 38274 ft | 453 kts | 297° |
| 2026-04-30 20:13 | 43.98980 | 27.88554 | 38275 ft | 453 kts | 297° |
| 2026-04-30 20:14 | 44.02077 | 27.80950 | 38266 ft | 453 kts | 297° |
| 2026-04-30 20:14 | 44.05148 | 27.73391 | 38283 ft | 452 kts | 297° |
| 2026-04-30 20:15 | 44.08231 | 27.65782 | 38289 ft | 452 kts | 297° |
| 2026-04-30 20:15 | 44.11309 | 27.58167 | 38286 ft | 451 kts | 297° |
| 2026-04-30 20:16 | 44.14378 | 27.50551 | 38296 ft | 451 kts | 297° |
| 2026-04-30 20:16 | 44.17418 | 27.42989 | 38301 ft | 451 kts | 297° |
| 2026-04-30 20:17 | 44.20473 | 27.35366 | 38311 ft | 451 kts | 297° |
| 2026-04-30 20:17 | 44.23528 | 27.27726 | 38311 ft | 451 kts | 297° |
| 2026-04-30 20:18 | 44.26578 | 27.20075 | 38311 ft | 452 kts | 297° |
| 2026-04-30 20:18 | 44.29606 | 27.12460 | 38307 ft | 452 kts | 297° |
| 2026-04-30 20:19 | 44.32651 | 27.04778 | 38317 ft | 453 kts | 297° |
| 2026-04-30 20:19 | 44.35656 | 26.97180 | 38320 ft | 453 kts | 297° |
| 2026-04-30 20:20 | 44.38187 | 26.90763 | 38319 ft | 454 kts | 297° |
| 2026-04-30 20:21 | 44.44959 | 26.73525 | 38329 ft | 455 kts | 297° |
| 2026-04-30 20:21 | 44.47997 | 26.65757 | 38325 ft | 455 kts | 297° |
| 2026-04-30 20:22 | 44.51033 | 26.57974 | 38331 ft | 455 kts | 297° |
| 2026-04-30 20:22 | 44.54039 | 26.50243 | 38332 ft | 455 kts | 297° |
| 2026-04-30 20:23 | 44.57063 | 26.42446 | 38328 ft | 455 kts | 297° |
| 2026-04-30 20:23 | 44.60083 | 26.34639 | 38335 ft | 455 kts | 297° |
| 2026-04-30 20:24 | 44.63096 | 26.26827 | 38334 ft | 455 kts | 297° |
| 2026-04-30 20:24 | 44.66086 | 26.19051 | 38347 ft | 455 kts | 297° |
| 2026-04-30 20:25 | 44.70593 | 26.07291 | 38346 ft | 456 kts | 297° |
| 2026-04-30 20:26 | 44.75040 | 25.95639 | 38344 ft | 456 kts | 297° |
| 2026-04-30 20:26 | 44.79507 | 25.83883 | 38356 ft | 457 kts | 297° |
| 2026-04-30 20:27 | 44.85492 | 25.68055 | 38356 ft | 458 kts | 297° |
| 2026-04-30 20:28 | 44.91453 | 25.52202 | 38346 ft | 460 kts | 297° |
| 2026-04-30 20:30 | 44.98926 | 25.32194 | 38357 ft | 462 kts | 297° |
| 2026-04-30 20:31 | 45.07860 | 25.08082 | 38361 ft | 464 kts | 297° |
| 2026-04-30 20:32 | 45.15273 | 24.87914 | 38358 ft | 465 kts | 297° |
| 2026-04-30 20:33 | 45.19715 | 24.75757 | 38356 ft | 465 kts | 297° |
| 2026-04-30 20:34 | 45.24166 | 24.63520 | 38354 ft | 465 kts | 297° |
| 2026-04-30 20:35 | 45.28601 | 24.51272 | 38365 ft | 465 kts | 297° |
| 2026-04-30 20:35 | 45.33004 | 24.39058 | 38351 ft | 465 kts | 297° |
| 2026-04-30 20:36 | 45.35942 | 24.30877 | 38365 ft | 465 kts | 298° |
| 2026-04-30 20:37 | 45.40339 | 24.18586 | 38354 ft | 464 kts | 297° |
| 2026-04-30 20:37 | 45.43261 | 24.10388 | 38361 ft | 464 kts | 297° |
| 2026-04-30 20:38 | 45.46153 | 24.02247 | 38361 ft | 464 kts | 297° |
| 2026-04-30 20:38 | 45.49019 | 23.94156 | 38345 ft | 464 kts | 297° |
| 2026-04-30 20:39 | 45.53369 | 23.81833 | 38357 ft | 464 kts | 297° |
| 2026-04-30 20:40 | 45.57691 | 23.69530 | 38358 ft | 465 kts | 297° |
| 2026-04-30 20:40 | 45.60583 | 23.61263 | 38360 ft | 466 kts | 297° |
| 2026-04-30 20:41 | 45.64914 | 23.48839 | 38361 ft | 466 kts | 297° |
| 2026-04-30 20:41 | 45.67796 | 23.40540 | 38359 ft | 466 kts | 297° |
| 2026-04-30 20:42 | 45.70651 | 23.32292 | 38343 ft | 466 kts | 297° |
| 2026-04-30 20:43 | 45.74955 | 23.19808 | 38352 ft | 466 kts | 297° |
| 2026-04-30 20:43 | 45.77819 | 23.11469 | 38351 ft | 467 kts | 297° |
| 2026-04-30 20:44 | 45.82165 | 22.99215 | 38333 ft | 466 kts | 302° |
| 2026-04-30 20:45 | 45.90309 | 22.84853 | 38358 ft | 465 kts | 313° |
| 2026-04-30 20:45 | 45.94689 | 22.78006 | 38341 ft | 466 kts | 313° |
| 2026-04-30 20:46 | 46.03354 | 22.64251 | 38341 ft | 466 kts | 313° |
| 2026-04-30 20:47 | 46.09867 | 22.53818 | 38336 ft | 467 kts | 313° |
| 2026-04-30 20:48 | 46.16348 | 22.43401 | 38317 ft | 468 kts | 313° |
| 2026-04-30 20:48 | 46.20691 | 22.36398 | 38341 ft | 468 kts | 313° |
| 2026-04-30 20:49 | 46.25037 | 22.29374 | 38328 ft | 469 kts | 313° |
| 2026-04-30 20:50 | 46.31533 | 22.18840 | 38322 ft | 470 kts | 313° |
| 2026-04-30 20:50 | 46.35875 | 22.11776 | 38321 ft | 470 kts | 313° |
| 2026-04-30 20:51 | 46.40221 | 22.04687 | 38326 ft | 470 kts | 313° |
| 2026-04-30 20:51 | 46.46676 | 21.94123 | 38323 ft | 470 kts | 313° |
| 2026-04-30 20:52 | 46.50980 | 21.87058 | 38323 ft | 471 kts | 313° |
| 2026-04-30 20:53 | 46.57472 | 21.76362 | 38325 ft | 470 kts | 313° |
| 2026-04-30 20:53 | 46.61796 | 21.69218 | 38332 ft | 470 kts | 313° |
| 2026-04-30 20:54 | 46.68048 | 21.58289 | 38325 ft | 472 kts | 306° |
| 2026-04-30 20:55 | 46.72575 | 21.45500 | 38336 ft | 476 kts | 295° |
| 2026-04-30 20:55 | 46.75103 | 21.36568 | 38338 ft | 477 kts | 295° |
| 2026-04-30 20:56 | 46.78882 | 21.23201 | 38343 ft | 478 kts | 295° |
| 2026-04-30 20:57 | 46.82717 | 21.09762 | 38344 ft | 479 kts | 295° |
| 2026-04-30 20:57 | 46.85278 | 21.00775 | 38343 ft | 479 kts | 295° |
| 2026-04-30 20:58 | 46.89056 | 20.87443 | 38346 ft | 480 kts | 295° |
| 2026-04-30 20:58 | 46.91602 | 20.78413 | 38339 ft | 480 kts | 295° |
| 2026-04-30 20:59 | 46.95409 | 20.64846 | 38345 ft | 481 kts | 295° |
| 2026-04-30 21:00 | 47.00446 | 20.46778 | 38354 ft | 481 kts | 295° |
| 2026-04-30 21:01 | 47.04223 | 20.33139 | 38353 ft | 481 kts | 295° |
| 2026-04-30 21:02 | 47.07983 | 20.19485 | 38354 ft | 481 kts | 295° |
| 2026-04-30 21:02 | 47.10465 | 20.10430 | 38344 ft | 481 kts | 295° |
| 2026-04-30 21:03 | 47.12952 | 20.01319 | 38354 ft | 481 kts | 295° |
| 2026-04-30 21:03 | 47.15399 | 19.92321 | 38355 ft | 481 kts | 295° |
| 2026-04-30 21:04 | 47.17873 | 19.83191 | 38355 ft | 481 kts | 294° |
| 2026-04-30 21:04 | 47.21573 | 19.69470 | 38350 ft | 481 kts | 295° |
| 2026-04-30 21:05 | 47.24015 | 19.60367 | 38366 ft | 482 kts | 295° |
| 2026-04-30 21:05 | 47.26468 | 19.51190 | 38368 ft | 482 kts | 294° |
| 2026-04-30 21:06 | 47.28917 | 19.41994 | 38369 ft | 483 kts | 294° |
| 2026-04-30 21:06 | 47.31361 | 19.32775 | 38368 ft | 483 kts | 295° |
| 2026-04-30 21:07 | 47.33800 | 19.23541 | 38376 ft | 484 kts | 294° |
| 2026-04-30 21:07 | 47.36221 | 19.14342 | 38375 ft | 485 kts | 294° |
| 2026-04-30 21:08 | 47.38653 | 19.05062 | 38373 ft | 485 kts | 294° |
| 2026-04-30 21:08 | 47.41048 | 18.95886 | 38376 ft | 486 kts | 294° |
| 2026-04-30 21:09 | 47.43470 | 18.86568 | 38367 ft | 486 kts | 294° |
| 2026-04-30 21:09 | 47.45872 | 18.77290 | 38363 ft | 487 kts | 294° |
| 2026-04-30 21:10 | 47.48284 | 18.67937 | 38370 ft | 487 kts | 294° |
| 2026-04-30 21:10 | 47.50689 | 18.58573 | 38361 ft | 487 kts | 294° |
| 2026-04-30 21:11 | 47.53087 | 18.49197 | 38360 ft | 487 kts | 294° |
| 2026-04-30 21:11 | 47.55462 | 18.39872 | 38365 ft | 488 kts | 294° |
| 2026-04-30 21:12 | 47.57848 | 18.30469 | 38368 ft | 488 kts | 294° |
| 2026-04-30 21:12 | 47.60227 | 18.21053 | 38363 ft | 488 kts | 294° |
| 2026-04-30 21:13 | 47.62598 | 18.11628 | 38369 ft | 488 kts | 294° |
| 2026-04-30 21:13 | 47.64961 | 18.02196 | 38372 ft | 488 kts | 294° |
| 2026-04-30 21:14 | 47.67268 | 17.92948 | 38368 ft | 489 kts | 294° |
| 2026-04-30 21:14 | 47.69222 | 17.85087 | 38360 ft | 489 kts | 294° |
| 2026-04-30 21:15 | 47.71568 | 17.75613 | 38372 ft | 489 kts | 294° |
| 2026-04-30 21:15 | 47.73908 | 17.66125 | 38375 ft | 490 kts | 294° |
| 2026-04-30 21:16 | 47.76242 | 17.56615 | 38374 ft | 490 kts | 294° |
| 2026-04-30 21:16 | 47.78947 | 17.45545 | 38372 ft | 490 kts | 294° |
| 2026-04-30 21:17 | 47.80878 | 17.37613 | 38391 ft | 491 kts | 294° |
| 2026-04-30 21:17 | 47.83194 | 17.28056 | 38387 ft | 491 kts | 294° |
| 2026-04-30 21:18 | 47.85882 | 17.16915 | 38383 ft | 492 kts | 294° |
| 2026-04-30 21:18 | 47.87812 | 17.08878 | 38384 ft | 492 kts | 294° |
| 2026-04-30 21:19 | 47.90063 | 16.99472 | 38389 ft | 492 kts | 294° |
| 2026-04-30 21:19 | 47.92356 | 16.89845 | 38392 ft | 493 kts | 294° |
| 2026-04-30 21:20 | 47.94643 | 16.80204 | 38402 ft | 493 kts | 294° |
| 2026-04-30 21:20 | 47.96923 | 16.70548 | 38402 ft | 494 kts | 294° |
| 2026-04-30 21:21 | 47.99196 | 16.60877 | 38404 ft | 494 kts | 293° |
| 2026-04-30 21:22 | 48.02562 | 16.46479 | 38402 ft | 494 kts | 293° |
| 2026-04-30 21:23 | 48.07056 | 16.27101 | 38422 ft | 493 kts | 294° |
| 2026-04-30 21:23 | 48.10390 | 16.12614 | 38420 ft | 493 kts | 294° |
| 2026-04-30 21:24 | 48.12611 | 16.02911 | 38422 ft | 493 kts | 293° |
| 2026-04-30 21:24 | 48.14793 | 15.93334 | 38414 ft | 493 kts | 294° |
| 2026-04-30 21:25 | 48.18088 | 15.78786 | 38425 ft | 494 kts | 293° |
| 2026-04-30 21:26 | 48.21384 | 15.64136 | 38424 ft | 495 kts | 293° |
| 2026-04-30 21:27 | 48.24659 | 15.49470 | 38421 ft | 494 kts | 294° |
| 2026-04-30 21:27 | 48.26831 | 15.39692 | 38426 ft | 494 kts | 294° |
| 2026-04-30 21:28 | 48.30064 | 15.25056 | 38421 ft | 495 kts | 294° |
| 2026-04-30 21:29 | 48.33298 | 15.10307 | 38416 ft | 496 kts | 294° |
| 2026-04-30 21:30 | 48.38607 | 14.85864 | 38419 ft | 497 kts | 294° |
| 2026-04-30 21:31 | 48.43904 | 14.61176 | 38420 ft | 494 kts | 294° |
| 2026-04-30 21:32 | 48.47047 | 14.46386 | 38418 ft | 494 kts | 294° |
| 2026-04-30 21:32 | 48.49115 | 14.36599 | 38397 ft | 493 kts | 294° |
| 2026-04-30 21:33 | 48.52215 | 14.21839 | 38416 ft | 491 kts | 294° |
| 2026-04-30 21:34 | 48.54267 | 14.12006 | 38420 ft | 491 kts | 294° |
| 2026-04-30 21:34 | 48.57300 | 13.97392 | 38380 ft | 491 kts | 294° |
| 2026-04-30 21:35 | 48.59310 | 13.87639 | 38407 ft | 489 kts | 294° |
| 2026-04-30 21:35 | 48.61320 | 13.77838 | 38419 ft | 488 kts | 294° |
| 2026-04-30 21:36 | 48.63321 | 13.68044 | 38419 ft | 487 kts | 294° |
| 2026-04-30 21:37 | 48.67355 | 13.48581 | 38404 ft | 485 kts | 295° |
| 2026-04-30 21:37 | 48.69464 | 13.38893 | 38403 ft | 485 kts | 295° |
| 2026-04-30 21:38 | 48.71560 | 13.29201 | 38419 ft | 485 kts | 295° |
| 2026-04-30 21:38 | 48.73640 | 13.19480 | 38414 ft | 485 kts | 294° |
| 2026-04-30 21:39 | 48.75703 | 13.09755 | 38407 ft | 484 kts | 294° |
| 2026-04-30 21:39 | 48.77744 | 13.00085 | 38408 ft | 484 kts | 294° |
| 2026-04-30 21:40 | 48.79759 | 12.90496 | 38414 ft | 484 kts | 294° |
| 2026-04-30 21:40 | 48.81796 | 12.80762 | 38412 ft | 484 kts | 294° |
| 2026-04-30 21:41 | 48.83824 | 12.71021 | 38413 ft | 484 kts | 294° |
| 2026-04-30 21:41 | 48.85831 | 12.61334 | 38417 ft | 484 kts | 294° |
| 2026-04-30 21:42 | 48.87844 | 12.51569 | 38418 ft | 485 kts | 294° |
| 2026-04-30 21:42 | 48.89852 | 12.41785 | 38413 ft | 485 kts | 294° |
| 2026-04-30 21:43 | 48.91849 | 12.31999 | 38405 ft | 485 kts | 294° |
| 2026-04-30 21:43 | 48.93840 | 12.22200 | 38414 ft | 485 kts | 294° |
| 2026-04-30 21:44 | 48.95810 | 12.12457 | 38415 ft | 485 kts | 293° |
| 2026-04-30 21:44 | 48.97280 | 12.05152 | 38408 ft | 486 kts | 293° |
| 2026-04-30 21:45 | 48.99220 | 11.95470 | 38410 ft | 486 kts | 293° |
| 2026-04-30 21:45 | 49.01178 | 11.85649 | 38408 ft | 485 kts | 293° |
| 2026-04-30 21:46 | 49.03121 | 11.75856 | 38410 ft | 486 kts | 293° |
| 2026-04-30 21:46 | 49.05069 | 11.65984 | 38406 ft | 487 kts | 293° |
| 2026-04-30 21:47 | 49.07012 | 11.56089 | 38407 ft | 487 kts | 292° |
| 2026-04-30 21:47 | 49.08945 | 11.46199 | 38403 ft | 486 kts | 292° |
| 2026-04-30 21:48 | 49.10869 | 11.36294 | 38404 ft | 487 kts | 292° |
| 2026-04-30 21:48 | 49.12772 | 11.26453 | 38406 ft | 487 kts | 292° |
| 2026-04-30 21:49 | 49.14683 | 11.16520 | 38417 ft | 488 kts | 292° |
| 2026-04-30 21:49 | 49.16587 | 11.06575 | 38412 ft | 488 kts | 292° |
| 2026-04-30 21:50 | 49.18441 | 10.96833 | 38433 ft | 488 kts | 292° |
| 2026-04-30 21:50 | 49.20329 | 10.86859 | 38438 ft | 489 kts | 291° |
| 2026-04-30 21:51 | 49.22212 | 10.76864 | 38392 ft | 489 kts | 291° |
| 2026-04-30 21:51 | 49.24087 | 10.66859 | 38359 ft | 489 kts | 291° |
| 2026-04-30 21:52 | 49.25940 | 10.56910 | 38384 ft | 490 kts | 291° |
| 2026-04-30 21:52 | 49.27496 | 10.48516 | 38383 ft | 490 kts | 291° |
| 2026-04-30 21:53 | 49.29350 | 10.38469 | 38392 ft | 490 kts | 291° |
| 2026-04-30 21:53 | 49.31195 | 10.28418 | 38388 ft | 490 kts | 290° |
| 2026-04-30 21:54 | 49.33020 | 10.18415 | 38370 ft | 490 kts | 290° |
| 2026-04-30 21:54 | 49.34849 | 10.08338 | 38379 ft | 491 kts | 290° |
| 2026-04-30 21:55 | 49.36643 | 9.98399 | 38375 ft | 491 kts | 290° |
| 2026-04-30 21:55 | 49.38458 | 9.88290 | 38377 ft | 491 kts | 290° |
| 2026-04-30 21:56 | 49.40264 | 9.78173 | 38367 ft | 491 kts | 289° |
| 2026-04-30 21:56 | 49.42046 | 9.68127 | 38365 ft | 491 kts | 289° |
| 2026-04-30 21:57 | 49.43830 | 9.58018 | 38361 ft | 490 kts | 289° |
| 2026-04-30 21:57 | 49.45605 | 9.47903 | 38351 ft | 490 kts | 289° |
| 2026-04-30 21:58 | 49.47371 | 9.37791 | 38333 ft | 490 kts | 288° |
| 2026-04-30 21:58 | 49.49116 | 9.27735 | 38358 ft | 490 kts | 288° |
| 2026-04-30 21:59 | 49.50866 | 9.17587 | 38351 ft | 491 kts | 288° |
| 2026-04-30 22:00 | 49.53479 | 9.02330 | 38355 ft | 491 kts | 288° |
| 2026-04-30 22:00 | 49.56047 | 8.87205 | 38346 ft | 492 kts | 288° |
| 2026-04-30 22:01 | 49.57757 | 8.77057 | 38349 ft | 493 kts | 287° |
| 2026-04-30 22:01 | 49.59473 | 8.66818 | 38346 ft | 494 kts | 287° |
| 2026-04-30 22:02 | 49.61179 | 8.56566 | 38350 ft | 494 kts | 287° |
| 2026-04-30 22:02 | 49.62877 | 8.46309 | 38345 ft | 494 kts | 287° |
| 2026-04-30 22:03 | 49.64555 | 8.36115 | 38344 ft | 494 kts | 287° |
| 2026-04-30 22:03 | 49.66234 | 8.25846 | 38351 ft | 494 kts | 287° |
| 2026-04-30 22:04 | 49.67907 | 8.15558 | 38351 ft | 494 kts | 287° |
| 2026-04-30 22:05 | 49.70391 | 8.00155 | 38349 ft | 491 kts | 286° |
| 2026-04-30 22:05 | 49.72003 | 7.90082 | 38345 ft | 490 kts | 286° |
| 2026-04-30 22:06 | 49.73618 | 7.79931 | 38342 ft | 489 kts | 286° |
| 2026-04-30 22:06 | 49.76030 | 7.64656 | 38334 ft | 488 kts | 285° |
| 2026-04-30 22:07 | 49.77631 | 7.54434 | 38344 ft | 488 kts | 285° |
| 2026-04-30 22:07 | 49.79221 | 7.44222 | 38349 ft | 488 kts | 285° |
| 2026-04-30 22:08 | 49.80792 | 7.34065 | 38346 ft | 489 kts | 285° |
| 2026-04-30 22:08 | 49.82367 | 7.23826 | 38331 ft | 489 kts | 284° |
| 2026-04-30 22:09 | 49.83934 | 7.13565 | 38338 ft | 489 kts | 284° |
| 2026-04-30 22:09 | 49.85490 | 7.03306 | 38334 ft | 489 kts | 284° |
| 2026-04-30 22:10 | 49.87007 | 6.93251 | 38331 ft | 490 kts | 284° |
| 2026-04-30 22:10 | 49.88547 | 6.82967 | 38307 ft | 490 kts | 284° |
| 2026-04-30 22:11 | 49.90840 | 6.67533 | 38293 ft | 489 kts | 284° |
| 2026-04-30 22:12 | 49.92355 | 6.57255 | 38314 ft | 488 kts | 284° |
| 2026-04-30 22:12 | 49.93847 | 6.47059 | 38299 ft | 487 kts | 283° |
| 2026-04-30 22:13 | 49.95339 | 6.36797 | 38295 ft | 487 kts | 283° |
| 2026-04-30 22:13 | 49.96820 | 6.26547 | 38305 ft | 486 kts | 283° |
| 2026-04-30 22:14 | 49.98289 | 6.16311 | 38304 ft | 485 kts | 283° |
| 2026-04-30 22:14 | 49.99738 | 6.06144 | 38305 ft | 485 kts | 283° |
| 2026-04-30 22:15 | 50.01165 | 5.96066 | 38305 ft | 485 kts | 283° |
| 2026-04-30 22:15 | 50.02606 | 5.85817 | 38300 ft | 486 kts | 282° |
| 2026-04-30 22:16 | 50.04046 | 5.75506 | 38309 ft | 490 kts | 282° |
| 2026-04-30 22:17 | 50.06912 | 5.54763 | 38303 ft | 491 kts | 282° |
| 2026-04-30 22:17 | 50.09027 | 5.39268 | 38287 ft | 483 kts | 282° |
| 2026-04-30 22:18 | 50.11084 | 5.24035 | 38291 ft | 477 kts | 282° |
| 2026-04-30 22:19 | 50.13104 | 5.08914 | 38303 ft | 479 kts | 282° |
| 2026-04-30 22:20 | 50.15107 | 4.93770 | 38299 ft | 482 kts | 281° |
| 2026-04-30 22:20 | 50.17121 | 4.78363 | 38297 ft | 484 kts | 281° |
| 2026-04-30 22:21 | 50.18449 | 4.68120 | 38291 ft | 485 kts | 281° |
| 2026-04-30 22:21 | 50.19777 | 4.57794 | 38301 ft | 486 kts | 281° |
| 2026-04-30 22:22 | 50.21099 | 4.47447 | 38289 ft | 486 kts | 281° |
| 2026-04-30 22:22 | 50.22409 | 4.37103 | 38292 ft | 485 kts | 281° |
| 2026-04-30 22:23 | 50.23700 | 4.26837 | 38288 ft | 485 kts | 280° |
| 2026-04-30 22:23 | 50.24989 | 4.16512 | 38288 ft | 484 kts | 280° |
| 2026-04-30 22:24 | 50.26268 | 4.06186 | 38285 ft | 484 kts | 280° |
| 2026-04-30 22:24 | 50.27519 | 3.96012 | 38277 ft | 483 kts | 280° |
| 2026-04-30 22:25 | 50.28769 | 3.85763 | 38271 ft | 483 kts | 280° |
| 2026-04-30 22:25 | 50.30018 | 3.75449 | 38272 ft | 483 kts | 280° |
| 2026-04-30 22:26 | 50.31881 | 3.59899 | 38269 ft | 483 kts | 280° |
| 2026-04-30 22:27 | 50.33099 | 3.49641 | 38260 ft | 482 kts | 279° |
| 2026-04-30 22:27 | 50.34910 | 3.34226 | 38262 ft | 482 kts | 279° |
| 2026-04-30 22:28 | 50.36707 | 3.18739 | 38264 ft | 482 kts | 279° |
| 2026-04-30 22:29 | 50.39053 | 2.98243 | 38265 ft | 483 kts | 279° |
| 2026-04-30 22:31 | 50.43116 | 2.61914 | 38251 ft | 485 kts | 279° |
| 2026-04-30 22:32 | 50.45958 | 2.35844 | 38243 ft | 487 kts | 278° |
| 2026-04-30 22:33 | 50.48753 | 2.09638 | 38238 ft | 489 kts | 278° |
| 2026-04-30 22:35 | 50.51486 | 1.83430 | 38222 ft | 489 kts | 278° |
| 2026-04-30 22:36 | 50.53646 | 1.62270 | 36735 ft | 499 kts | 277° |
| 2026-04-30 22:36 | 50.54190 | 1.56884 | 35815 ft | 499 kts | 277° |
| 2026-04-30 22:37 | 50.55810 | 1.40681 | 32800 ft | 502 kts | 276° |
| 2026-04-30 22:37 | 50.56349 | 1.35254 | 31741 ft | 503 kts | 276° |
| 2026-04-30 22:37 | 50.57683 | 1.24521 | 29941 ft | 497 kts | 289° |
| 2026-04-30 22:38 | 50.61539 | 1.15849 | 28486 ft | 482 kts | 316° |
| 2026-04-30 22:38 | 50.66339 | 1.08630 | 27115 ft | 473 kts | 315° |
| 2026-04-30 22:39 | 50.68673 | 1.05001 | 26449 ft | 469 kts | 315° |
| 2026-04-30 22:39 | 50.75437 | 0.94261 | 24520 ft | 460 kts | 314° |
| 2026-04-30 22:40 | 50.82121 | 0.83584 | 22448 ft | 453 kts | 314° |
| 2026-04-30 22:41 | 50.88683 | 0.73070 | 20564 ft | 442 kts | 314° |
| 2026-04-30 22:41 | 50.92961 | 0.66190 | 19343 ft | 435 kts | 314° |
| 2026-04-30 22:42 | 51.01280 | 0.52756 | 16757 ft | 422 kts | 314° |
| 2026-04-30 22:43 | 51.05349 | 0.46159 | 15520 ft | 414 kts | 313° |
| 2026-04-30 22:43 | 51.09399 | 0.39751 | 14312 ft | 408 kts | 315° |
| 2026-04-30 22:44 | 51.13486 | 0.33598 | 13032 ft | 401 kts | 315° |
| 2026-04-30 22:45 | 51.21328 | 0.21609 | 10713 ft | 383 kts | 315° |
| 2026-04-30 22:45 | 51.25114 | 0.15788 | 9705 ft | 371 kts | 315° |
| 2026-04-30 22:46 | 51.28691 | 0.10279 | 9346 ft | 341 kts | 315° |
| 2026-04-30 22:47 | 51.33520 | -0.00238 | 8791 ft | 267 kts | 269° |
| 2026-04-30 22:47 | 51.33669 | -0.05911 | 8201 ft | 248 kts | 270° |
| 2026-04-30 22:48 | 51.33863 | -0.11430 | 7384 ft | 253 kts | 271° |
| 2026-04-30 22:49 | 51.34206 | -0.19721 | 7206 ft | 247 kts | 271° |
| 2026-04-30 22:49 | 51.34573 | -0.27991 | 7212 ft | 250 kts | 271° |
| 2026-04-30 22:50 | 51.35070 | -0.39059 | 7229 ft | 249 kts | 271° |
| 2026-04-30 22:51 | 51.35313 | -0.44540 | 7230 ft | 249 kts | 271° |
| 2026-04-30 22:51 | 51.35557 | -0.50064 | 7229 ft | 249 kts | 271° |
| 2026-04-30 22:52 | 51.35677 | -0.52823 | 7230 ft | 249 kts | 271° |
| 2026-04-30 22:52 | 51.35918 | -0.58331 | 7226 ft | 249 kts | 271° |
| 2026-04-30 22:53 | 51.36154 | -0.63863 | 7226 ft | 249 kts | 271° |
| 2026-04-30 22:53 | 51.36560 | -0.69338 | 6913 ft | 244 kts | 277° |
| 2026-04-30 22:53 | 51.36852 | -0.71938 | 6323 ft | 237 kts | 278° |
| 2026-04-30 22:54 | 51.38021 | -0.76708 | 5490 ft | 238 kts | 310° |
| 2026-04-30 22:55 | 51.42778 | -0.79000 | 4343 ft | 249 kts | 358° |
| 2026-04-30 22:55 | 51.46038 | -0.78501 | 3636 ft | 222 kts | 35° |
| 2026-04-30 22:56 | 51.47284 | -0.74827 | 3287 ft | 177 kts | 86° |
| 2026-04-30 22:56 | 51.47659 | -0.69152 | 2617 ft | 166 kts | 96° |
| 2026-04-30 22:57 | 51.47688 | -0.65526 | 2179 ft | 160 kts | 98° |
| 2026-04-30 22:57 | 51.47700 | -0.62005 | 1759 ft | 158 kts | 97° |
| 2026-04-30 22:58 | 51.47712 | -0.58453 | 1341 ft | 162 kts | 95° |
| 2026-04-30 22:59 | 51.47730 | -0.53633 | 706 ft | 129 kts | 90° |
| 2026-04-30 22:59 | 51.47745 | -0.49249 | 229 ft | 132 kts | 89° |